createdAt,value
2018-03-27T00:00:26.096Z,4.90
2018-03-27T00:02:54.234Z,4.90
2018-03-27T00:05:24.983Z,4.90
2018-03-27T00:20:52.420Z,4.90
2018-03-27T00:23:21.870Z,4.50
2018-03-27T00:25:54.225Z,4.50
2018-03-27T00:28:39.983Z,4.50
2018-03-27T00:31:25.963Z,4.50
2018-03-27T00:34:12.242Z,4.60
2018-03-27T00:36:58.006Z,4.70
2018-03-27T00:39:44.564Z,4.70
2018-03-27T00:45:44.974Z,4.80
2018-03-27T00:48:13.112Z,4.80
2018-03-27T00:50:41.235Z,4.90
2018-03-27T00:53:09.659Z,4.90
2018-03-27T00:55:38.602Z,4.90
2018-03-27T00:58:06.874Z,4.90
2018-03-27T01:00:35.002Z,5.00
2018-03-27T01:03:03.097Z,5.00
2018-03-27T01:05:31.663Z,5.00
2018-03-27T01:08:00.488Z,5.00
2018-03-27T01:10:29.507Z,5.00
2018-03-27T01:12:57.695Z,5.10
2018-03-27T01:15:26.629Z,5.10
2018-03-27T01:17:55.364Z,5.00
2018-03-27T01:20:23.649Z,5.10
2018-03-27T01:22:56.001Z,5.10
2018-03-27T01:25:24.182Z,5.10
2018-03-27T01:27:52.323Z,5.10
2018-03-27T01:30:20.515Z,5.10
2018-03-27T01:32:48.715Z,5.10
2018-03-27T01:35:19.441Z,5.10
2018-03-27T01:37:51.453Z,5.10
2018-03-27T01:40:24.530Z,5.10
2018-03-27T01:42:52.672Z,5.10
2018-03-27T01:45:24.842Z,5.10
2018-03-27T01:47:52.998Z,5.10
2018-03-27T01:50:21.968Z,5.10
2018-03-27T01:52:50.840Z,5.10
2018-03-27T01:55:19.738Z,5.00
2018-03-27T01:57:47.932Z,5.00
2018-03-27T02:00:16.190Z,5.00
2018-03-27T02:02:44.364Z,5.00
2018-03-27T02:05:12.649Z,5.00
2018-03-27T02:07:40.805Z,4.90
2018-03-27T02:10:08.998Z,4.90
2018-03-27T02:12:42.648Z,4.90
2018-03-27T02:15:16.338Z,5.00
2018-03-27T02:17:53.741Z,5.00
2018-03-27T02:20:27.260Z,5.00
2018-03-27T02:22:59.342Z,4.90
2018-03-27T02:25:31.709Z,4.90
2018-03-27T02:27:59.940Z,4.90
2018-03-27T02:30:28.196Z,4.90
2018-03-27T02:32:59.076Z,4.90
2018-03-27T02:35:27.189Z,4.90
2018-03-27T02:37:56.223Z,4.90
2018-03-27T02:40:24.846Z,4.90
2018-03-27T02:42:52.957Z,4.90
2018-03-27T02:45:21.095Z,4.90
2018-03-27T02:47:49.217Z,4.90
2018-03-27T02:50:17.403Z,4.90
2018-03-27T02:52:45.538Z,4.90
2018-03-27T02:55:13.661Z,4.90
2018-03-27T02:57:41.777Z,4.90
2018-03-27T03:00:09.908Z,4.90
2018-03-27T03:02:38.104Z,4.90
2018-03-27T03:05:06.940Z,4.90
2018-03-27T03:07:35.110Z,4.90
2018-03-27T03:10:03.266Z,4.90
2018-03-27T03:12:33.504Z,4.90
2018-03-27T03:15:06.429Z,4.90
2018-03-27T03:17:38.431Z,4.90
2018-03-27T03:20:07.070Z,4.90
2018-03-27T03:22:35.932Z,4.90
2018-03-27T03:25:04.855Z,4.80
2018-03-27T03:27:33.026Z,4.80
2018-03-27T03:30:01.192Z,4.80
2018-03-27T03:32:29.912Z,4.80
2018-03-27T03:35:02.373Z,4.80
2018-03-27T03:37:30.577Z,4.70
2018-03-27T03:39:58.716Z,4.70
2018-03-27T03:42:27.056Z,4.70
2018-03-27T03:44:55.172Z,4.70
2018-03-27T03:47:24.537Z,4.70
2018-03-27T03:49:53.562Z,4.70
2018-03-27T03:52:21.807Z,4.70
2018-03-27T03:54:50.090Z,4.70
2018-03-27T03:57:29.522Z,4.70
2018-03-27T03:59:58.456Z,4.80
2018-03-27T04:02:26.560Z,4.80
2018-03-27T04:04:54.722Z,4.80
2018-03-27T04:07:26.480Z,4.80
2018-03-27T04:09:54.619Z,4.90
2018-03-27T04:12:22.741Z,4.90
2018-03-27T04:14:55.214Z,4.90
2018-03-27T04:17:23.383Z,4.90
2018-03-27T04:19:52.357Z,4.90
2018-03-27T04:22:20.583Z,4.90
2018-03-27T04:24:50.149Z,4.90
2018-03-27T04:27:18.462Z,4.90
2018-03-27T04:29:47.617Z,4.90
2018-03-27T04:32:16.519Z,4.90
2018-03-27T04:34:44.641Z,4.90
2018-03-27T04:37:16.602Z,4.90
2018-03-27T04:39:45.449Z,4.80
2018-03-27T04:42:13.557Z,4.80
2018-03-27T04:44:41.753Z,4.80
2018-03-27T04:47:11.610Z,4.70
2018-03-27T04:49:43.760Z,4.70
2018-03-27T04:52:16.099Z,4.70
2018-03-27T04:54:44.278Z,4.70
2018-03-27T04:57:12.392Z,4.60
2018-03-27T04:59:40.525Z,4.60
2018-03-27T05:02:08.649Z,4.50
2018-03-27T05:04:37.012Z,4.50
2018-03-27T05:07:05.563Z,4.50
2018-03-27T05:09:34.150Z,4.50
2018-03-27T05:12:02.466Z,4.50
2018-03-27T05:14:31.463Z,4.50
2018-03-27T05:17:00.848Z,4.50
2018-03-27T05:19:29.030Z,4.50
2018-03-27T05:21:57.508Z,4.50
2018-03-27T05:24:25.748Z,4.50
2018-03-27T05:26:54.413Z,4.50
2018-03-27T05:29:23.379Z,4.50
2018-03-27T05:31:52.038Z,4.50
2018-03-27T05:34:20.458Z,4.50
2018-03-27T05:36:48.640Z,4.60
2018-03-27T05:39:16.751Z,4.60
2018-03-27T05:41:44.865Z,4.60
2018-03-27T05:44:12.980Z,4.60
2018-03-27T05:46:41.240Z,4.60
2018-03-27T05:49:10.278Z,4.60
2018-03-27T05:51:38.504Z,4.60
2018-03-27T05:54:07.464Z,4.60
2018-03-27T05:56:35.588Z,4.60
2018-03-27T05:59:03.878Z,4.60
2018-03-27T06:01:32.064Z,4.60
2018-03-27T06:04:00.232Z,4.60
2018-03-27T06:06:28.885Z,4.60
2018-03-27T06:08:57.052Z,4.60
2018-03-27T06:11:25.511Z,4.60
2018-03-27T06:13:54.984Z,4.70
2018-03-27T06:16:23.180Z,4.60
2018-03-27T06:18:51.570Z,4.70
2018-03-27T06:21:20.435Z,4.70
2018-03-27T06:23:48.603Z,4.70
2018-03-27T06:26:17.370Z,4.70
2018-03-27T06:28:45.516Z,4.80
2018-03-27T06:31:13.730Z,4.70
2018-03-27T06:33:41.951Z,4.70
2018-03-27T06:36:10.108Z,4.70
2018-03-27T06:38:38.222Z,4.60
2018-03-27T06:41:06.505Z,4.60
2018-03-27T06:43:34.728Z,4.50
2018-03-27T06:46:03.072Z,4.30
2018-03-27T06:48:31.253Z,4.20
2018-03-27T06:50:59.530Z,3.90
2018-03-27T06:53:27.661Z,3.80
2018-03-27T06:55:55.781Z,3.60
2018-03-27T06:58:23.895Z,3.50
2018-03-27T07:00:52.034Z,3.40
2018-03-27T07:03:20.185Z,3.40
2018-03-27T07:05:48.372Z,3.30
2018-03-27T07:08:16.475Z,3.30
2018-03-27T07:10:44.720Z,3.30
2018-03-27T07:13:13.193Z,3.20
2018-03-27T07:15:41.295Z,3.10
2018-03-27T07:18:09.440Z,3.30
2018-03-27T07:20:37.559Z,3.00
2018-03-27T07:23:05.690Z,3.10
2018-03-27T07:25:33.825Z,3.20
2018-03-27T07:28:01.939Z,3.20
2018-03-27T07:30:30.079Z,3.30
2018-03-27T07:32:58.208Z,3.40
2018-03-27T07:35:27.148Z,3.50
2018-03-27T07:37:55.245Z,3.50
2018-03-27T07:40:23.465Z,3.60
2018-03-27T07:42:52.339Z,3.70
2018-03-27T07:45:20.475Z,3.70
2018-03-27T07:47:48.573Z,3.80
2018-03-27T07:50:16.680Z,3.90
2018-03-27T07:52:44.802Z,4.00
2018-03-27T07:55:12.985Z,4.10
2018-03-27T07:57:41.184Z,4.30
2018-03-27T08:00:10.094Z,4.60
2018-03-27T08:02:38.210Z,4.60
2018-03-27T08:05:06.338Z,4.70
2018-03-27T08:07:34.456Z,4.80
2018-03-27T08:10:02.583Z,4.90
2018-03-27T08:12:30.702Z,4.90
2018-03-27T08:14:58.920Z,4.90
2018-03-27T08:17:27.062Z,4.90
2018-03-27T08:19:55.305Z,5.00
2018-03-27T08:22:23.400Z,5.10
2018-03-27T08:24:51.518Z,5.00
2018-03-27T08:27:19.615Z,5.00
2018-03-27T08:29:47.720Z,5.00
2018-03-27T08:32:15.834Z,5.00
2018-03-27T08:34:44.009Z,5.10
2018-03-27T08:37:12.135Z,5.10
2018-03-27T08:39:40.240Z,5.10
2018-03-27T08:42:08.373Z,5.10
2018-03-27T08:44:36.973Z,5.10
2018-03-27T08:47:05.121Z,5.10
2018-03-27T08:49:33.550Z,5.10
2018-03-27T08:52:02.439Z,5.40
2018-03-27T08:54:30.588Z,5.30
2018-03-27T08:56:58.730Z,5.50
2018-03-27T08:59:26.879Z,5.70
2018-03-27T09:01:54.992Z,5.90
2018-03-27T09:04:23.108Z,5.90
2018-03-27T09:06:51.225Z,6.00
2018-03-27T09:09:19.320Z,6.20
2018-03-27T09:11:47.468Z,6.20
2018-03-27T09:14:15.569Z,6.20
2018-03-27T09:16:43.689Z,6.10
2018-03-27T09:19:11.811Z,6.20
2018-03-27T09:21:39.912Z,6.40
2018-03-27T09:24:08.784Z,6.60
2018-03-27T09:26:36.894Z,6.60
2018-03-27T09:29:05.013Z,6.70
2018-03-27T09:31:33.144Z,6.80
2018-03-27T09:34:01.262Z,7.00
2018-03-27T09:36:29.374Z,7.10
2018-03-27T09:38:57.523Z,7.10
2018-03-27T09:41:25.688Z,7.00
2018-03-27T09:43:53.886Z,6.90
2018-03-27T09:46:22.120Z,6.80
2018-03-27T09:48:50.354Z,6.70
2018-03-27T09:51:18.605Z,6.60
2018-03-27T09:53:46.819Z,6.50
2018-03-27T09:56:14.963Z,6.50
2018-03-27T09:58:43.849Z,6.60
2018-03-27T10:01:11.972Z,6.50
2018-03-27T10:03:40.105Z,6.70
2018-03-27T10:06:08.218Z,6.90
2018-03-27T10:08:36.347Z,7.00
2018-03-27T10:11:05.241Z,7.30
2018-03-27T10:13:35.684Z,7.30
2018-03-27T10:16:10.492Z,7.30
2018-03-27T10:18:40.568Z,7.30
2018-03-27T10:21:09.510Z,7.10
2018-03-27T10:23:38.481Z,7.10
2018-03-27T10:26:13.491Z,7.10
2018-03-27T10:28:46.612Z,7.10
2018-03-27T10:31:19.232Z,7.20
2018-03-27T10:33:52.003Z,7.60
2018-03-27T10:36:31.571Z,7.60
2018-03-27T10:39:12.945Z,8.10
2018-03-27T10:41:43.116Z,8.10
2018-03-27T10:44:15.996Z,8.30
2018-03-27T10:46:49.622Z,8.50
2018-03-27T10:49:24.852Z,8.80
2018-03-27T10:51:57.810Z,9.10
2018-03-27T10:54:29.218Z,9.40
2018-03-27T10:56:57.878Z,9.80
2018-03-27T10:59:26.551Z,10.00
2018-03-27T11:01:56.027Z,10.10
2018-03-27T11:04:27.577Z,10.20
2018-03-27T11:06:58.893Z,10.40
2018-03-27T11:09:28.267Z,10.40
2018-03-27T11:11:58.083Z,10.60
2018-03-27T11:14:29.299Z,10.70
2018-03-27T11:16:59.533Z,10.70
2018-03-27T11:19:33.032Z,10.70
2018-03-27T11:22:03.743Z,10.70
2018-03-27T11:24:38.899Z,10.80
2018-03-27T11:27:11.379Z,10.90
2018-03-27T11:29:43.638Z,11.00
2018-03-27T11:32:13.387Z,11.20
2018-03-27T11:34:47.451Z,11.40
2018-03-27T11:37:19.707Z,11.60
2018-03-27T11:39:58.460Z,12.00
2018-03-27T11:42:33.201Z,12.40
2018-03-27T11:45:14.053Z,12.80
2018-03-27T11:47:47.238Z,13.00
2018-03-27T11:50:20.491Z,13.00
2018-03-27T11:52:54.686Z,12.80
2018-03-27T11:55:27.083Z,12.50
2018-03-27T11:57:58.554Z,12.30
2018-03-27T12:00:29.450Z,12.10
2018-03-27T12:02:59.044Z,11.90
2018-03-27T12:05:29.408Z,11.60
2018-03-27T12:08:02.795Z,11.40
2018-03-27T12:10:35.038Z,11.20
2018-03-27T12:13:13.786Z,11.00
2018-03-27T12:15:58.283Z,10.90
2018-03-27T12:18:26.707Z,10.90
2018-03-27T12:20:59.160Z,10.90
2018-03-27T12:23:28.587Z,10.80
2018-03-27T12:25:56.725Z,10.70
2018-03-27T12:28:25.597Z,10.70
2018-03-27T12:30:54.611Z,10.70
2018-03-27T12:33:22.760Z,10.80
2018-03-27T12:35:51.281Z,10.90
2018-03-27T12:38:19.441Z,11.10
2018-03-27T12:40:47.587Z,11.30
2018-03-27T12:43:15.715Z,11.60
2018-03-27T12:45:43.835Z,11.80
2018-03-27T12:48:13.332Z,11.90
2018-03-27T12:50:41.504Z,12.20
2018-03-27T12:53:09.659Z,12.60
2018-03-27T12:55:38.115Z,13.00
2018-03-27T12:58:06.265Z,13.40
2018-03-27T13:00:34.400Z,13.70
2018-03-27T13:03:03.038Z,14.10
2018-03-27T13:05:31.247Z,14.60
2018-03-27T13:07:59.631Z,14.80
2018-03-27T13:10:28.099Z,14.90
2018-03-27T13:12:56.789Z,15.00
2018-03-27T13:15:24.897Z,15.10
2018-03-27T13:17:53.034Z,15.10
2018-03-27T13:20:21.875Z,15.00
2018-03-27T13:22:50.094Z,14.80
2018-03-27T13:25:18.580Z,14.60
2018-03-27T13:27:46.971Z,14.40
2018-03-27T13:30:15.433Z,14.10
2018-03-27T13:32:43.556Z,13.70
2018-03-27T13:35:11.954Z,13.30
2018-03-27T13:37:40.454Z,13.00
2018-03-27T13:40:08.656Z,12.60
2018-03-27T13:42:36.788Z,12.10
2018-03-27T13:45:04.919Z,11.80
2018-03-27T13:47:33.055Z,11.40
2018-03-27T13:50:01.204Z,11.10
2018-03-27T13:52:29.372Z,10.90
2018-03-27T13:54:57.740Z,10.80
2018-03-27T13:57:25.929Z,10.80
2018-03-27T13:59:54.042Z,10.90
2018-03-27T14:02:22.182Z,11.30
2018-03-27T14:04:50.358Z,12.40
2018-03-27T14:07:18.528Z,12.10
2018-03-27T14:09:46.698Z,12.50
2018-03-27T14:12:14.798Z,13.00
2018-03-27T14:14:42.934Z,13.80
2018-03-27T14:17:11.807Z,14.80
2018-03-27T14:19:40.006Z,14.80
2018-03-27T14:22:08.116Z,14.80
2018-03-27T14:24:36.265Z,14.70
2018-03-27T14:27:04.455Z,14.50
2018-03-27T14:29:32.578Z,14.40
2018-03-27T14:32:01.816Z,14.00
2018-03-27T14:34:30.747Z,14.00
2018-03-27T14:36:58.909Z,13.70
2018-03-27T14:39:27.014Z,13.50
2018-03-27T14:41:55.141Z,13.30
2018-03-27T14:44:23.275Z,13.30
2018-03-27T14:46:51.398Z,13.20
2018-03-27T14:49:19.636Z,13.20
2018-03-27T14:51:47.814Z,13.10
2018-03-27T14:54:15.947Z,13.10
2018-03-27T14:56:44.192Z,13.10
2018-03-27T14:59:12.494Z,13.30
2018-03-27T15:01:40.711Z,13.90
2018-03-27T15:04:08.811Z,13.80
2018-03-27T15:06:36.956Z,13.90
2018-03-27T15:09:05.060Z,13.90
2018-03-27T15:11:33.210Z,14.20
2018-03-27T15:14:01.356Z,14.80
2018-03-27T15:16:30.549Z,15.90
2018-03-27T15:18:58.674Z,15.90
2018-03-27T15:21:26.788Z,16.00
2018-03-27T15:23:55.684Z,15.80
2018-03-27T15:26:24.572Z,15.60
2018-03-27T15:28:53.467Z,15.50
2018-03-27T15:31:22.198Z,15.50
2018-03-27T15:33:51.118Z,15.50
2018-03-27T15:36:19.256Z,15.70
2018-03-27T15:38:47.402Z,15.80
2018-03-27T15:41:15.522Z,15.80
2018-03-27T15:43:43.853Z,15.80
2018-03-27T15:46:12.000Z,15.80
2018-03-27T15:48:41.594Z,15.70
2018-03-27T15:51:10.856Z,15.70
2018-03-27T15:53:39.064Z,15.60
2018-03-27T15:56:07.223Z,15.40
2018-03-27T15:58:35.343Z,15.10
2018-03-27T16:01:03.475Z,14.90
2018-03-27T16:03:31.642Z,14.70
2018-03-27T16:05:59.760Z,14.40
2018-03-27T16:08:27.970Z,14.10
2018-03-27T16:10:56.074Z,13.80
2018-03-27T16:13:24.183Z,13.50
2018-03-27T16:15:52.415Z,13.20
2018-03-27T16:18:20.768Z,13.00
2018-03-27T16:20:48.893Z,12.70
2018-03-27T16:23:17.066Z,12.50
2018-03-27T16:25:45.224Z,12.40
2018-03-27T16:28:13.344Z,12.30
2018-03-27T16:30:41.472Z,12.10
2018-03-27T16:33:09.692Z,11.90
2018-03-27T16:35:37.816Z,11.80
2018-03-27T16:38:05.950Z,11.70
2018-03-27T16:40:34.096Z,11.60
2018-03-27T16:43:04.338Z,11.40
2018-03-27T16:45:32.578Z,11.40
2018-03-27T16:48:00.909Z,11.30
2018-03-27T16:50:29.103Z,11.20
2018-03-27T16:52:57.206Z,11.00
2018-03-27T16:55:25.477Z,10.90
2018-03-27T16:57:53.628Z,10.80
2018-03-27T17:00:21.846Z,10.70
2018-03-27T17:02:49.985Z,10.60
2018-03-27T17:05:18.127Z,10.50
2018-03-27T17:07:46.381Z,10.40
2018-03-27T17:10:14.517Z,10.30
2018-03-27T17:12:42.639Z,10.10
2018-03-27T17:15:10.847Z,10.00
2018-03-27T17:17:38.957Z,9.80
2018-03-27T17:20:07.067Z,9.60
2018-03-27T17:22:35.207Z,9.40
2018-03-27T17:25:03.410Z,9.30
2018-03-27T17:27:31.752Z,9.10
2018-03-27T17:30:01.880Z,8.80
2018-03-27T17:32:30.106Z,8.80
2018-03-27T17:34:58.314Z,8.70
2018-03-27T17:37:26.896Z,8.50
2018-03-27T17:39:55.766Z,8.10
2018-03-27T17:42:23.894Z,8.10
2018-03-27T17:44:52.060Z,8.00
2018-03-27T17:47:20.152Z,7.80
2018-03-27T17:49:48.270Z,7.70
2018-03-27T17:52:17.148Z,7.40
2018-03-27T17:54:45.367Z,7.30
2018-03-27T17:57:13.538Z,7.20
2018-03-27T17:59:41.923Z,7.00
2018-03-27T18:02:10.040Z,6.90
2018-03-27T18:04:38.266Z,6.70
2018-03-27T18:07:06.441Z,6.60
2018-03-27T18:09:34.609Z,6.50
2018-03-27T18:12:02.714Z,6.40
2018-03-27T18:14:30.868Z,6.20
2018-03-27T18:16:59.502Z,6.10
2018-03-27T18:19:27.756Z,6.00
2018-03-27T18:21:55.914Z,5.80
2018-03-27T18:24:24.024Z,5.70
2018-03-27T18:26:52.575Z,5.60
2018-03-27T18:29:20.807Z,5.50
2018-03-27T18:31:49.018Z,5.40
2018-03-27T18:34:28.648Z,5.30
2018-03-27T18:36:56.785Z,5.20
2018-03-27T18:39:24.946Z,5.10
2018-03-27T18:41:53.196Z,5.00
2018-03-27T18:44:22.516Z,4.90
2018-03-27T18:46:51.314Z,4.90
2018-03-27T18:49:20.326Z,4.80
2018-03-27T18:51:48.594Z,4.80
2018-03-27T18:54:16.867Z,4.80
2018-03-27T18:56:46.017Z,4.80
2018-03-27T18:59:18.637Z,4.70
2018-03-27T19:01:46.775Z,4.70
2018-03-27T19:04:15.793Z,4.70
2018-03-27T19:06:45.006Z,4.70
2018-03-27T19:09:13.354Z,4.70
2018-03-27T19:11:41.727Z,4.70
2018-03-27T19:14:11.031Z,4.60
2018-03-27T19:16:40.222Z,4.60
2018-03-27T19:19:08.749Z,4.60
2018-03-27T19:34:27.216Z,4.60
2018-03-27T19:36:55.348Z,4.00
2018-03-27T19:39:24.310Z,3.90
2018-03-27T19:41:52.492Z,3.90
2018-03-27T19:44:20.759Z,4.00
2018-03-27T19:46:49.511Z,4.10
2018-03-27T19:49:19.261Z,4.20
2018-03-27T19:51:47.383Z,4.30
2018-03-27T19:54:16.007Z,4.40
2018-03-27T19:56:47.056Z,4.50
2018-03-27T19:59:17.641Z,4.60
2018-03-27T20:01:45.801Z,4.60
2018-03-27T20:04:18.716Z,4.70
2018-03-27T20:06:47.003Z,4.70
2018-03-27T20:09:15.107Z,4.80
2018-03-27T20:11:43.485Z,4.80
2018-03-27T20:14:11.651Z,4.90
2018-03-27T20:16:39.841Z,4.90
2018-03-27T20:19:08.931Z,4.90
2018-03-27T20:21:38.304Z,5.00
2018-03-27T20:24:12.851Z,5.00
2018-03-27T20:26:41.052Z,5.00
2018-03-27T20:29:13.277Z,5.10
2018-03-27T20:31:44.972Z,5.10
2018-03-27T20:34:17.656Z,5.20
2018-03-27T20:36:45.888Z,5.30
2018-03-27T20:39:14.886Z,5.30
2018-03-27T20:41:43.207Z,5.40
2018-03-27T20:44:11.357Z,5.40
2018-03-27T20:46:39.510Z,5.50
2018-03-27T20:49:07.880Z,5.50
2018-03-27T20:51:52.862Z,5.50
2018-03-27T20:54:21.184Z,5.60
2018-03-27T20:56:49.328Z,5.60
2018-03-27T20:59:18.814Z,5.70
2018-03-27T21:01:47.351Z,5.80
2018-03-27T21:04:34.449Z,5.80
2018-03-27T21:07:02.708Z,5.90
2018-03-27T21:09:30.908Z,6.00
2018-03-27T21:11:59.130Z,6.00
2018-03-27T21:14:31.908Z,6.00
2018-03-27T21:17:01.513Z,6.10
2018-03-27T21:19:29.668Z,6.10
2018-03-27T21:22:09.618Z,6.10
2018-03-27T21:24:42.057Z,6.20
2018-03-27T21:27:11.067Z,6.10
2018-03-27T21:29:39.233Z,6.10
2018-03-27T21:32:08.115Z,6.20
2018-03-27T21:34:36.685Z,6.20
2018-03-27T21:37:04.873Z,6.20
2018-03-27T21:39:33.937Z,6.20
2018-03-27T21:42:02.159Z,6.20
2018-03-27T21:44:31.853Z,6.20
2018-03-27T21:47:00.101Z,6.20
2018-03-27T21:49:28.431Z,6.20
2018-03-27T21:51:56.641Z,6.30
2018-03-27T21:54:29.486Z,6.30
2018-03-27T21:56:57.610Z,6.30
2018-03-27T21:59:25.855Z,6.30
2018-03-27T22:01:55.022Z,6.30
2018-03-27T22:04:23.222Z,6.40
2018-03-27T22:07:00.758Z,6.40
2018-03-27T22:09:29.130Z,6.40
2018-03-27T22:11:58.692Z,6.40
2018-03-27T22:14:31.879Z,6.40
2018-03-27T22:17:06.902Z,6.40
2018-03-27T22:19:51.276Z,6.50
2018-03-27T22:22:19.397Z,6.50
2018-03-27T22:24:47.499Z,6.50
2018-03-27T22:27:16.397Z,6.40
2018-03-27T22:29:45.245Z,6.30
2018-03-27T22:32:17.787Z,6.20
2018-03-27T22:34:45.964Z,6.20
2018-03-27T22:37:14.070Z,6.10
2018-03-27T22:39:42.301Z,6.10
2018-03-27T22:55:05.429Z,6.10
2018-03-27T22:57:34.191Z,5.40
2018-03-27T23:00:11.195Z,5.30
2018-03-27T23:02:43.309Z,5.20
2018-03-27T23:05:11.770Z,5.20
2018-03-27T23:07:40.473Z,5.20
2018-03-27T23:10:08.827Z,5.20
2018-03-27T23:12:37.584Z,5.20
2018-03-27T23:15:06.466Z,5.30
2018-03-27T23:17:34.599Z,5.30
2018-03-27T23:20:03.760Z,5.30
2018-03-27T23:22:32.721Z,5.30
2018-03-27T23:25:00.902Z,5.40
2018-03-27T23:27:29.054Z,5.40
2018-03-27T23:30:01.104Z,5.40
2018-03-27T23:32:29.251Z,5.40
2018-03-27T23:34:58.124Z,5.40
2018-03-27T23:37:30.765Z,5.50
2018-03-27T23:39:58.896Z,5.50
2018-03-27T23:42:27.741Z,5.50
2018-03-27T23:44:57.766Z,5.40
2018-03-27T23:47:25.871Z,5.50
2018-03-27T23:49:54.605Z,5.40
2018-03-27T23:52:23.404Z,5.40
2018-03-27T23:54:51.533Z,5.40
2018-03-27T23:57:19.704Z,5.40
2018-03-27T23:59:47.801Z,5.40
